sensor_id;sensor_type;location;lat;lon;timestamp;P1;durP1;ratioP1;P2;durP2;ratioP2
75760;SDS011;64373;46.136;8.830;2024-01-30T00:01:15;1.70;;;1.35;;
75760;SDS011;64373;46.136;8.830;2024-01-30T00:03:40;3.35;;;1.48;;
75760;SDS011;64373;46.136;8.830;2024-01-30T00:06:06;2.03;;;1.20;;
75760;SDS011;64373;46.136;8.830;2024-01-30T00:08:33;3.15;;;1.42;;
75760;SDS011;64373;46.136;8.830;2024-01-30T00:10:58;2.92;;;1.40;;
75760;SDS011;64373;46.136;8.830;2024-01-30T00:13:24;3.03;;;1.60;;
75760;SDS011;64373;46.136;8.830;2024-01-30T00:15:49;2.53;;;1.55;;
75760;SDS011;64373;46.136;8.830;2024-01-30T00:18:15;2.40;;;1.40;;
75760;SDS011;64373;46.136;8.830;2024-01-30T00:20:40;2.13;;;1.40;;
75760;SDS011;64373;46.136;8.830;2024-01-30T00:23:06;2.13;;;1.35;;
75760;SDS011;64373;46.136;8.830;2024-01-30T00:25:31;2.35;;;1.70;;
75760;SDS011;64373;46.136;8.830;2024-01-30T00:27:58;1.85;;;1.40;;
75760;SDS011;64373;46.136;8.830;2024-01-30T00:30:24;2.03;;;1.13;;
75760;SDS011;64373;46.136;8.830;2024-01-30T00:32:49;1.88;;;1.00;;
75760;SDS011;64373;46.136;8.830;2024-01-30T00:35:15;1.75;;;1.08;;
75760;SDS011;64373;46.136;8.830;2024-01-30T00:37:40;1.63;;;1.17;;
75760;SDS011;64373;46.136;8.830;2024-01-30T00:40:06;1.98;;;1.05;;
75760;SDS011;64373;46.136;8.830;2024-01-30T00:42:32;1.83;;;1.13;;
75760;SDS011;64373;46.136;8.830;2024-01-30T00:44:58;1.65;;;1.02;;
75760;SDS011;64373;46.136;8.830;2024-01-30T00:47:23;1.67;;;1.02;;
75760;SDS011;64373;46.136;8.830;2024-01-30T00:49:49;1.40;;;0.90;;
75760;SDS011;64373;46.136;8.830;2024-01-30T00:52:14;1.48;;;0.90;;
75760;SDS011;64373;46.136;8.830;2024-01-30T00:54:40;1.30;;;1.00;;
75760;SDS011;64373;46.136;8.830;2024-01-30T00:57:06;1.73;;;1.10;;
75760;SDS011;64373;46.136;8.830;2024-01-30T00:59:32;1.67;;;1.05;;
75760;SDS011;64373;46.136;8.830;2024-01-30T01:01:58;1.38;;;0.90;;
75760;SDS011;64373;46.136;8.830;2024-01-30T01:04:23;1.60;;;1.00;;
75760;SDS011;64373;46.136;8.830;2024-01-30T01:06:49;1.92;;;1.10;;
75760;SDS011;64373;46.136;8.830;2024-01-30T01:09:14;1.92;;;0.90;;
75760;SDS011;64373;46.136;8.830;2024-01-30T01:11:40;1.38;;;1.00;;
75760;SDS011;64373;46.136;8.830;2024-01-30T01:14:05;1.58;;;1.05;;
75760;SDS011;64373;46.136;8.830;2024-01-30T01:16:31;1.40;;;1.00;;
75760;SDS011;64373;46.136;8.830;2024-01-30T01:18:56;1.70;;;0.93;;
75760;SDS011;64373;46.136;8.830;2024-01-30T01:21:22;1.92;;;1.15;;
75760;SDS011;64373;46.136;8.830;2024-01-30T01:23:48;2.35;;;1.10;;
75760;SDS011;64373;46.136;8.830;2024-01-30T01:26:13;1.90;;;0.90;;
75760;SDS011;64373;46.136;8.830;2024-01-30T01:28:40;1.30;;;0.90;;
75760;SDS011;64373;46.136;8.830;2024-01-30T01:31:06;1.63;;;1.10;;
75760;SDS011;64373;46.136;8.830;2024-01-30T01:33:32;1.98;;;1.27;;
75760;SDS011;64373;46.136;8.830;2024-01-30T01:35:58;1.45;;;1.20;;
75760;SDS011;64373;46.136;8.830;2024-01-30T01:38:24;2.08;;;1.20;;
75760;SDS011;64373;46.136;8.830;2024-01-30T01:40:50;2.20;;;1.20;;
75760;SDS011;64373;46.136;8.830;2024-01-30T01:43:16;1.60;;;1.20;;
75760;SDS011;64373;46.136;8.830;2024-01-30T01:45:42;2.30;;;1.40;;
75760;SDS011;64373;46.136;8.830;2024-01-30T01:48:07;1.98;;;1.02;;
75760;SDS011;64373;46.136;8.830;2024-01-30T01:50:34;2.50;;;1.30;;
75760;SDS011;64373;46.136;8.830;2024-01-30T01:53:00;2.67;;;1.50;;
75760;SDS011;64373;46.136;8.830;2024-01-30T01:55:27;3.47;;;1.70;;
75760;SDS011;64373;46.136;8.830;2024-01-30T01:57:53;2.67;;;1.40;;
75760;SDS011;64373;46.136;8.830;2024-01-30T02:00:19;1.80;;;1.20;;
75760;SDS011;64373;46.136;8.830;2024-01-30T02:02:45;1.83;;;1.40;;
75760;SDS011;64373;46.136;8.830;2024-01-30T02:05:11;2.13;;;1.33;;
75760;SDS011;64373;46.136;8.830;2024-01-30T02:07:37;2.75;;;1.30;;
75760;SDS011;64373;46.136;8.830;2024-01-30T02:10:03;2.88;;;1.50;;
75760;SDS011;64373;46.136;8.830;2024-01-30T02:12:29;1.73;;;1.30;;
75760;SDS011;64373;46.136;8.830;2024-01-30T02:14:55;1.70;;;1.13;;
75760;SDS011;64373;46.136;8.830;2024-01-30T02:17:20;1.77;;;1.00;;
75760;SDS011;64373;46.136;8.830;2024-01-30T02:19:48;2.15;;;1.20;;
75760;SDS011;64373;46.136;8.830;2024-01-30T02:22:14;2.50;;;1.38;;
75760;SDS011;64373;46.136;8.830;2024-01-30T02:24:40;2.05;;;1.40;;
75760;SDS011;64373;46.136;8.830;2024-01-30T02:27:05;2.13;;;1.20;;
75760;SDS011;64373;46.136;8.830;2024-01-30T02:29:31;1.50;;;1.10;;
75760;SDS011;64373;46.136;8.830;2024-01-30T02:31:56;1.67;;;1.00;;
75760;SDS011;64373;46.136;8.830;2024-01-30T02:34:22;1.00;;;0.90;;
75760;SDS011;64373;46.136;8.830;2024-01-30T02:36:47;1.40;;;0.90;;
75760;SDS011;64373;46.136;8.830;2024-01-30T02:39:13;1.55;;;1.02;;
75760;SDS011;64373;46.136;8.830;2024-01-30T02:41:38;2.03;;;1.33;;
75760;SDS011;64373;46.136;8.830;2024-01-30T02:44:04;2.00;;;1.20;;
75760;SDS011;64373;46.136;8.830;2024-01-30T02:46:29;1.75;;;1.10;;
75760;SDS011;64373;46.136;8.830;2024-01-30T02:48:55;1.73;;;1.00;;
75760;SDS011;64373;46.136;8.830;2024-01-30T02:51:21;1.75;;;0.85;;
75760;SDS011;64373;46.136;8.830;2024-01-30T02:53:46;2.05;;;1.10;;
75760;SDS011;64373;46.136;8.830;2024-01-30T02:56:12;1.05;;;0.90;;
75760;SDS011;64373;46.136;8.830;2024-01-30T02:58:41;1.40;;;0.80;;
75760;SDS011;64373;46.136;8.830;2024-01-30T03:01:07;1.50;;;0.93;;
75760;SDS011;64373;46.136;8.830;2024-01-30T03:03:33;1.45;;;1.10;;
75760;SDS011;64373;46.136;8.830;2024-01-30T03:06:01;1.67;;;1.10;;
75760;SDS011;64373;46.136;8.830;2024-01-30T03:08:27;1.20;;;0.82;;
75760;SDS011;64373;46.136;8.830;2024-01-30T03:10:53;1.33;;;0.90;;
75760;SDS011;64373;46.136;8.830;2024-01-30T03:13:19;1.65;;;1.10;;
75760;SDS011;64373;46.136;8.830;2024-01-30T03:15:44;1.73;;;1.08;;
75760;SDS011;64373;46.136;8.830;2024-01-30T03:18:10;2.22;;;1.23;;
75760;SDS011;64373;46.136;8.830;2024-01-30T03:20:35;1.52;;;0.88;;
75760;SDS011;64373;46.136;8.830;2024-01-30T03:23:01;1.27;;;0.82;;
75760;SDS011;64373;46.136;8.830;2024-01-30T03:25:27;1.38;;;1.00;;
75760;SDS011;64373;46.136;8.830;2024-01-30T03:27:52;1.40;;;0.82;;
75760;SDS011;64373;46.136;8.830;2024-01-30T03:30:18;1.55;;;1.20;;
75760;SDS011;64373;46.136;8.830;2024-01-30T03:32:43;1.52;;;1.02;;
75760;SDS011;64373;46.136;8.830;2024-01-30T03:35:09;1.38;;;0.88;;
75760;SDS011;64373;46.136;8.830;2024-01-30T03:37:35;1.45;;;0.85;;
75760;SDS011;64373;46.136;8.830;2024-01-30T03:40:01;1.48;;;1.15;;
75760;SDS011;64373;46.136;8.830;2024-01-30T03:42:27;1.27;;;1.00;;
75760;SDS011;64373;46.136;8.830;2024-01-30T03:44:53;1.52;;;1.08;;
75760;SDS011;64373;46.136;8.830;2024-01-30T03:47:22;1.88;;;1.20;;
75760;SDS011;64373;46.136;8.830;2024-01-30T03:49:48;1.88;;;1.30;;
75760;SDS011;64373;46.136;8.830;2024-01-30T03:52:13;2.10;;;1.40;;
75760;SDS011;64373;46.136;8.830;2024-01-30T03:54:39;1.80;;;1.38;;
75760;SDS011;64373;46.136;8.830;2024-01-30T03:57:05;2.70;;;1.48;;
75760;SDS011;64373;46.136;8.830;2024-01-30T03:59:30;2.45;;;1.30;;
75760;SDS011;64373;46.136;8.830;2024-01-30T04:01:56;2.45;;;1.42;;
75760;SDS011;64373;46.136;8.830;2024-01-30T04:04:21;2.03;;;1.48;;
75760;SDS011;64373;46.136;8.830;2024-01-30T04:06:48;1.92;;;1.20;;
75760;SDS011;64373;46.136;8.830;2024-01-30T04:09:13;2.38;;;1.13;;
75760;SDS011;64373;46.136;8.830;2024-01-30T04:11:39;2.00;;;1.00;;
75760;SDS011;64373;46.136;8.830;2024-01-30T04:14:05;1.52;;;1.00;;
75760;SDS011;64373;46.136;8.830;2024-01-30T04:16:31;1.80;;;0.98;;
75760;SDS011;64373;46.136;8.830;2024-01-30T04:18:57;1.63;;;1.10;;
75760;SDS011;64373;46.136;8.830;2024-01-30T04:21:23;1.75;;;1.10;;
75760;SDS011;64373;46.136;8.830;2024-01-30T04:23:50;1.40;;;1.10;;
75760;SDS011;64373;46.136;8.830;2024-01-30T04:26:16;1.73;;;1.10;;
75760;SDS011;64373;46.136;8.830;2024-01-30T04:28:41;1.67;;;0.90;;
75760;SDS011;64373;46.136;8.830;2024-01-30T04:31:07;1.75;;;1.10;;
75760;SDS011;64373;46.136;8.830;2024-01-30T04:33:33;1.48;;;1.00;;
75760;SDS011;64373;46.136;8.830;2024-01-30T04:35:59;1.77;;;1.08;;
75760;SDS011;64373;46.136;8.830;2024-01-30T04:38:24;1.50;;;1.10;;
75760;SDS011;64373;46.136;8.830;2024-01-30T04:40:50;2.17;;;1.10;;
75760;SDS011;64373;46.136;8.830;2024-01-30T04:43:15;1.63;;;1.08;;
75760;SDS011;64373;46.136;8.830;2024-01-30T04:45:41;1.83;;;1.20;;
75760;SDS011;64373;46.136;8.830;2024-01-30T04:48:07;2.10;;;1.38;;
75760;SDS011;64373;46.136;8.830;2024-01-30T04:50:32;2.60;;;1.00;;
75760;SDS011;64373;46.136;8.830;2024-01-30T04:52:58;1.60;;;1.00;;
75760;SDS011;64373;46.136;8.830;2024-01-30T04:55:24;1.90;;;0.98;;
75760;SDS011;64373;46.136;8.830;2024-01-30T04:57:49;1.40;;;1.00;;
75760;SDS011;64373;46.136;8.830;2024-01-30T05:00:15;1.13;;;0.80;;
75760;SDS011;64373;46.136;8.830;2024-01-30T05:02:41;1.23;;;0.90;;
75760;SDS011;64373;46.136;8.830;2024-01-30T05:05:06;1.27;;;0.88;;
75760;SDS011;64373;46.136;8.830;2024-01-30T05:07:33;2.70;;;1.20;;
75760;SDS011;64373;46.136;8.830;2024-01-30T05:09:59;1.15;;;0.93;;
75760;SDS011;64373;46.136;8.830;2024-01-30T05:12:25;1.83;;;1.15;;
75760;SDS011;64373;46.136;8.830;2024-01-30T05:14:50;1.20;;;0.90;;
75760;SDS011;64373;46.136;8.830;2024-01-30T05:17:16;2.15;;;1.33;;
75760;SDS011;64373;46.136;8.830;2024-01-30T05:19:43;1.50;;;0.90;;
75760;SDS011;64373;46.136;8.830;2024-01-30T05:22:09;1.48;;;1.08;;
75760;SDS011;64373;46.136;8.830;2024-01-30T05:24:35;2.35;;;1.00;;
75760;SDS011;64373;46.136;8.830;2024-01-30T05:27:01;1.60;;;0.88;;
75760;SDS011;64373;46.136;8.830;2024-01-30T05:29:27;1.92;;;0.95;;
75760;SDS011;64373;46.136;8.830;2024-01-30T05:31:53;1.73;;;1.13;;
75760;SDS011;64373;46.136;8.830;2024-01-30T05:34:18;1.38;;;0.93;;
75760;SDS011;64373;46.136;8.830;2024-01-30T05:36:44;2.20;;;0.80;;
75760;SDS011;64373;46.136;8.830;2024-01-30T05:39:09;1.35;;;0.88;;
75760;SDS011;64373;46.136;8.830;2024-01-30T05:41:35;1.92;;;1.10;;
75760;SDS011;64373;46.136;8.830;2024-01-30T05:44:01;1.27;;;1.00;;
75760;SDS011;64373;46.136;8.830;2024-01-30T05:46:26;1.85;;;1.30;;
75760;SDS011;64373;46.136;8.830;2024-01-30T05:48:52;2.20;;;1.10;;
75760;SDS011;64373;46.136;8.830;2024-01-30T05:51:18;1.67;;;1.08;;
75760;SDS011;64373;46.136;8.830;2024-01-30T05:53:43;2.75;;;1.30;;
75760;SDS011;64373;46.136;8.830;2024-01-30T05:56:09;1.75;;;1.10;;
75760;SDS011;64373;46.136;8.830;2024-01-30T05:58:34;2.28;;;1.30;;
75760;SDS011;64373;46.136;8.830;2024-01-30T06:01:02;1.95;;;1.10;;
75760;SDS011;64373;46.136;8.830;2024-01-30T06:03:28;2.53;;;0.95;;
75760;SDS011;64373;46.136;8.830;2024-01-30T06:05:53;1.95;;;1.05;;
75760;SDS011;64373;46.136;8.830;2024-01-30T06:08:19;1.50;;;1.00;;
75760;SDS011;64373;46.136;8.830;2024-01-30T06:10:44;1.80;;;1.05;;
75760;SDS011;64373;46.136;8.830;2024-01-30T06:13:10;1.70;;;1.20;;
75760;SDS011;64373;46.136;8.830;2024-01-30T06:15:35;2.00;;;1.00;;
75760;SDS011;64373;46.136;8.830;2024-01-30T06:18:01;0.82;;;0.75;;
75760;SDS011;64373;46.136;8.830;2024-01-30T06:20:26;1.73;;;1.02;;
75760;SDS011;64373;46.136;8.830;2024-01-30T06:22:52;2.78;;;1.40;;
75760;SDS011;64373;46.136;8.830;2024-01-30T06:25:17;2.60;;;1.35;;
75760;SDS011;64373;46.136;8.830;2024-01-30T06:27:43;2.55;;;1.05;;
75760;SDS011;64373;46.136;8.830;2024-01-30T06:30:08;2.03;;;1.05;;
75760;SDS011;64373;46.136;8.830;2024-01-30T06:32:37;1.50;;;0.90;;
75760;SDS011;64373;46.136;8.830;2024-01-30T06:35:03;1.52;;;0.90;;
75760;SDS011;64373;46.136;8.830;2024-01-30T06:37:31;1.67;;;1.00;;
75760;SDS011;64373;46.136;8.830;2024-01-30T06:39:56;1.38;;;0.85;;
75760;SDS011;64373;46.136;8.830;2024-01-30T06:42:22;2.00;;;0.95;;
75760;SDS011;64373;46.136;8.830;2024-01-30T06:44:50;1.42;;;0.98;;
75760;SDS011;64373;46.136;8.830;2024-01-30T06:47:16;1.35;;;0.70;;
75760;SDS011;64373;46.136;8.830;2024-01-30T06:49:41;1.00;;;0.60;;
75760;SDS011;64373;46.136;8.830;2024-01-30T06:52:08;1.55;;;1.10;;
75760;SDS011;64373;46.136;8.830;2024-01-30T06:54:34;1.67;;;1.10;;
75760;SDS011;64373;46.136;8.830;2024-01-30T06:57:00;1.35;;;0.70;;
75760;SDS011;64373;46.136;8.830;2024-01-30T06:59:28;0.88;;;0.73;;
75760;SDS011;64373;46.136;8.830;2024-01-30T07:01:53;1.05;;;0.80;;
75760;SDS011;64373;46.136;8.830;2024-01-30T07:04:19;1.77;;;1.10;;
75760;SDS011;64373;46.136;8.830;2024-01-30T07:06:44;1.42;;;1.05;;
75760;SDS011;64373;46.136;8.830;2024-01-30T07:09:10;1.70;;;0.88;;
75760;SDS011;64373;46.136;8.830;2024-01-30T07:11:37;1.30;;;0.95;;
75760;SDS011;64373;46.136;8.830;2024-01-30T07:14:02;1.65;;;1.10;;
75760;SDS011;64373;46.136;8.830;2024-01-30T07:16:31;1.70;;;0.82;;
75760;SDS011;64373;46.136;8.830;2024-01-30T07:18:56;1.40;;;1.02;;
75760;SDS011;64373;46.136;8.830;2024-01-30T07:21:22;1.42;;;0.90;;
75760;SDS011;64373;46.136;8.830;2024-01-30T07:23:53;1.30;;;0.88;;
75760;SDS011;64373;46.136;8.830;2024-01-30T07:26:21;1.40;;;0.70;;
75760;SDS011;64373;46.136;8.830;2024-01-30T07:28:47;1.38;;;0.80;;
75760;SDS011;64373;46.136;8.830;2024-01-30T07:31:13;1.60;;;0.80;;
75760;SDS011;64373;46.136;8.830;2024-01-30T07:33:38;0.75;;;0.75;;
75760;SDS011;64373;46.136;8.830;2024-01-30T07:36:04;1.02;;;0.82;;
75760;SDS011;64373;46.136;8.830;2024-01-30T07:38:33;1.23;;;0.82;;
75760;SDS011;64373;46.136;8.830;2024-01-30T07:40:58;1.13;;;0.77;;
75760;SDS011;64373;46.136;8.830;2024-01-30T07:43:24;0.73;;;0.60;;
75760;SDS011;64373;46.136;8.830;2024-01-30T07:45:49;1.20;;;0.50;;
75760;SDS011;64373;46.136;8.830;2024-01-30T07:48:15;0.88;;;0.70;;
75760;SDS011;64373;46.136;8.830;2024-01-30T07:50:41;1.20;;;0.90;;
75760;SDS011;64373;46.136;8.830;2024-01-30T07:53:06;1.13;;;0.90;;
75760;SDS011;64373;46.136;8.830;2024-01-30T07:55:32;1.45;;;1.00;;
75760;SDS011;64373;46.136;8.830;2024-01-30T07:57:57;1.38;;;0.80;;
75760;SDS011;64373;46.136;8.830;2024-01-30T08:00:26;1.70;;;0.70;;
75760;SDS011;64373;46.136;8.830;2024-01-30T08:02:54;1.30;;;0.90;;
75760;SDS011;64373;46.136;8.830;2024-01-30T08:05:20;1.48;;;1.08;;
75760;SDS011;64373;46.136;8.830;2024-01-30T08:07:48;1.65;;;1.10;;
75760;SDS011;64373;46.136;8.830;2024-01-30T08:10:16;2.42;;;1.38;;
75760;SDS011;64373;46.136;8.830;2024-01-30T08:12:45;2.50;;;1.17;;
75760;SDS011;64373;46.136;8.830;2024-01-30T08:15:11;2.08;;;1.15;;
75760;SDS011;64373;46.136;8.830;2024-01-30T08:17:38;1.50;;;1.13;;
75760;SDS011;64373;46.136;8.830;2024-01-30T08:20:04;1.40;;;1.10;;
75760;SDS011;64373;46.136;8.830;2024-01-30T08:22:30;2.45;;;1.30;;
75760;SDS011;64373;46.136;8.830;2024-01-30T08:24:55;2.20;;;1.42;;
75760;SDS011;64373;46.136;8.830;2024-01-30T08:27:21;1.38;;;0.95;;
75760;SDS011;64373;46.136;8.830;2024-01-30T08:29:46;1.30;;;0.93;;
75760;SDS011;64373;46.136;8.830;2024-01-30T08:32:12;1.65;;;1.20;;
75760;SDS011;64373;46.136;8.830;2024-01-30T08:34:37;1.42;;;1.00;;
75760;SDS011;64373;46.136;8.830;2024-01-30T08:37:03;1.25;;;0.85;;
75760;SDS011;64373;46.136;8.830;2024-01-30T08:39:28;1.38;;;0.70;;
75760;SDS011;64373;46.136;8.830;2024-01-30T08:41:54;1.17;;;0.90;;
75760;SDS011;64373;46.136;8.830;2024-01-30T08:44:20;1.27;;;0.80;;
75760;SDS011;64373;46.136;8.830;2024-01-30T08:46:45;1.20;;;0.75;;
75760;SDS011;64373;46.136;8.830;2024-01-30T08:49:11;0.70;;;0.70;;
75760;SDS011;64373;46.136;8.830;2024-01-30T08:51:38;1.30;;;0.80;;
75760;SDS011;64373;46.136;8.830;2024-01-30T08:54:04;1.85;;;0.85;;
75760;SDS011;64373;46.136;8.830;2024-01-30T08:56:30;0.85;;;0.70;;
75760;SDS011;64373;46.136;8.830;2024-01-30T08:58:55;1.00;;;0.70;;
75760;SDS011;64373;46.136;8.830;2024-01-30T09:01:21;1.17;;;0.70;;
75760;SDS011;64373;46.136;8.830;2024-01-30T09:03:46;0.70;;;0.70;;
75760;SDS011;64373;46.136;8.830;2024-01-30T09:06:12;0.75;;;0.65;;
75760;SDS011;64373;46.136;8.830;2024-01-30T09:08:38;0.80;;;0.45;;
75760;SDS011;64373;46.136;8.830;2024-01-30T09:11:10;0.88;;;0.70;;
75760;SDS011;64373;46.136;8.830;2024-01-30T09:13:39;0.75;;;0.60;;
75760;SDS011;64373;46.136;8.830;2024-01-30T09:16:05;1.17;;;0.85;;
75760;SDS011;64373;46.136;8.830;2024-01-30T09:18:31;0.77;;;0.50;;
75760;SDS011;64373;46.136;8.830;2024-01-30T09:20:56;1.00;;;0.60;;
75760;SDS011;64373;46.136;8.830;2024-01-30T09:23:22;0.85;;;0.60;;
75760;SDS011;64373;46.136;8.830;2024-01-30T09:25:48;0.60;;;0.50;;
75760;SDS011;64373;46.136;8.830;2024-01-30T09:28:13;0.80;;;0.50;;
75760;SDS011;64373;46.136;8.830;2024-01-30T09:30:39;1.17;;;0.60;;
75760;SDS011;64373;46.136;8.830;2024-01-30T09:33:04;0.57;;;0.50;;
75760;SDS011;64373;46.136;8.830;2024-01-30T09:35:31;1.80;;;0.90;;
75760;SDS011;64373;46.136;8.830;2024-01-30T09:37:56;1.25;;;0.80;;
75760;SDS011;64373;46.136;8.830;2024-01-30T09:40:22;0.80;;;0.60;;
75760;SDS011;64373;46.136;8.830;2024-01-30T09:42:49;0.90;;;0.65;;
75760;SDS011;64373;46.136;8.830;2024-01-30T09:45:15;1.42;;;0.85;;
75760;SDS011;64373;46.136;8.830;2024-01-30T09:47:43;0.90;;;0.60;;
75760;SDS011;64373;46.136;8.830;2024-01-30T09:50:10;1.02;;;0.60;;
75760;SDS011;64373;46.136;8.830;2024-01-30T09:52:36;0.80;;;0.65;;
75760;SDS011;64373;46.136;8.830;2024-01-30T09:55:03;0.98;;;0.50;;
75760;SDS011;64373;46.136;8.830;2024-01-30T09:57:29;0.90;;;0.50;;
75760;SDS011;64373;46.136;8.830;2024-01-30T09:59:55;0.68;;;0.50;;
75760;SDS011;64373;46.136;8.830;2024-01-30T10:02:21;0.95;;;0.43;;
75760;SDS011;64373;46.136;8.830;2024-01-30T10:04:48;0.80;;;0.50;;
75760;SDS011;64373;46.136;8.830;2024-01-30T10:07:15;1.60;;;0.50;;
75760;SDS011;64373;46.136;8.830;2024-01-30T10:09:41;0.88;;;0.68;;
75760;SDS011;64373;46.136;8.830;2024-01-30T10:12:07;0.50;;;0.50;;
75760;SDS011;64373;46.136;8.830;2024-01-30T10:14:37;0.80;;;0.55;;
75760;SDS011;64373;46.136;8.830;2024-01-30T10:17:04;0.90;;;0.55;;
75760;SDS011;64373;46.136;8.830;2024-01-30T10:19:30;1.55;;;0.60;;
75760;SDS011;64373;46.136;8.830;2024-01-30T10:21:56;1.52;;;0.68;;
75760;SDS011;64373;46.136;8.830;2024-01-30T10:24:25;1.13;;;0.85;;
75760;SDS011;64373;46.136;8.830;2024-01-30T10:26:51;1.25;;;0.90;;
75760;SDS011;64373;46.136;8.830;2024-01-30T10:29:17;1.05;;;0.77;;
75760;SDS011;64373;46.136;8.830;2024-01-30T10:31:42;1.27;;;1.00;;
75760;SDS011;64373;46.136;8.830;2024-01-30T10:34:08;0.93;;;0.82;;
75760;SDS011;64373;46.136;8.830;2024-01-30T10:36:35;0.98;;;0.70;;
75760;SDS011;64373;46.136;8.830;2024-01-30T10:39:08;0.60;;;0.50;;
75760;SDS011;64373;46.136;8.830;2024-01-30T10:41:38;0.70;;;0.60;;
75760;SDS011;64373;46.136;8.830;2024-01-30T10:44:09;0.68;;;0.57;;
75760;SDS011;64373;46.136;8.830;2024-01-30T10:46:37;1.00;;;0.50;;
75760;SDS011;64373;46.136;8.830;2024-01-30T10:49:04;0.47;;;0.47;;
75760;SDS011;64373;46.136;8.830;2024-01-30T10:51:30;0.85;;;0.50;;
75760;SDS011;64373;46.136;8.830;2024-01-30T10:53:57;0.77;;;0.57;;
75760;SDS011;64373;46.136;8.830;2024-01-30T10:56:23;0.85;;;0.47;;
75760;SDS011;64373;46.136;8.830;2024-01-30T10:58:50;1.13;;;0.55;;
75760;SDS011;64373;46.136;8.830;2024-01-30T11:01:20;0.40;;;0.40;;
75760;SDS011;64373;46.136;8.830;2024-01-30T11:06:23;0.68;;;0.40;;
75760;SDS011;64373;46.136;8.830;2024-01-30T11:09:02;0.70;;;0.50;;
75760;SDS011;64373;46.136;8.830;2024-01-30T11:11:29;0.50;;;0.40;;
75760;SDS011;64373;46.136;8.830;2024-01-30T11:13:55;0.82;;;0.43;;
75760;SDS011;64373;46.136;8.830;2024-01-30T11:16:20;0.55;;;0.50;;
75760;SDS011;64373;46.136;8.830;2024-01-30T11:18:49;0.50;;;0.40;;
75760;SDS011;64373;46.136;8.830;2024-01-30T11:21:16;0.45;;;0.45;;
75760;SDS011;64373;46.136;8.830;2024-01-30T11:23:42;0.38;;;0.38;;
75760;SDS011;64373;46.136;8.830;2024-01-30T11:26:10;0.65;;;0.43;;
75760;SDS011;64373;46.136;8.830;2024-01-30T11:28:37;0.63;;;0.40;;
75760;SDS011;64373;46.136;8.830;2024-01-30T11:31:06;0.68;;;0.50;;
75760;SDS011;64373;46.136;8.830;2024-01-30T11:33:32;0.43;;;0.30;;
75760;SDS011;64373;46.136;8.830;2024-01-30T11:35:59;0.50;;;0.50;;
75760;SDS011;64373;46.136;8.830;2024-01-30T11:38:25;0.70;;;0.40;;
75760;SDS011;64373;46.136;8.830;2024-01-30T11:40:52;0.60;;;0.50;;
75760;SDS011;64373;46.136;8.830;2024-01-30T11:43:18;0.88;;;0.50;;
75760;SDS011;64373;46.136;8.830;2024-01-30T11:45:44;0.40;;;0.40;;
75760;SDS011;64373;46.136;8.830;2024-01-30T11:48:11;0.50;;;0.30;;
75760;SDS011;64373;46.136;8.830;2024-01-30T11:50:37;0.30;;;0.30;;
75760;SDS011;64373;46.136;8.830;2024-01-30T11:53:04;0.70;;;0.50;;
75760;SDS011;64373;46.136;8.830;2024-01-30T11:55:29;0.30;;;0.30;;
75760;SDS011;64373;46.136;8.830;2024-01-30T11:57:59;0.77;;;0.38;;
75760;SDS011;64373;46.136;8.830;2024-01-30T12:00:24;0.40;;;0.30;;
75760;SDS011;64373;46.136;8.830;2024-01-30T12:02:51;0.40;;;0.40;;
75760;SDS011;64373;46.136;8.830;2024-01-30T12:05:21;0.40;;;0.30;;
75760;SDS011;64373;46.136;8.830;2024-01-30T12:07:47;0.43;;;0.32;;
75760;SDS011;64373;46.136;8.830;2024-01-30T12:10:13;0.35;;;0.30;;
75760;SDS011;64373;46.136;8.830;2024-01-30T12:12:39;0.82;;;0.52;;
75760;SDS011;64373;46.136;8.830;2024-01-30T12:15:07;0.82;;;0.43;;
75760;SDS011;64373;46.136;8.830;2024-01-30T12:17:33;2.50;;;1.33;;
75760;SDS011;64373;46.136;8.830;2024-01-30T12:22:41;2.22;;;1.73;;
75760;SDS011;64373;46.136;8.830;2024-01-30T12:25:08;1.98;;;1.33;;
75760;SDS011;64373;46.136;8.830;2024-01-30T12:27:38;1.13;;;1.02;;
75760;SDS011;64373;46.136;8.830;2024-01-30T12:30:12;1.45;;;1.30;;
75760;SDS011;64373;46.136;8.830;2024-01-30T12:32:39;1.98;;;1.30;;
75760;SDS011;64373;46.136;8.830;2024-01-30T12:35:10;1.70;;;1.20;;
75760;SDS011;64373;46.136;8.830;2024-01-30T12:37:39;1.98;;;1.25;;
75760;SDS011;64373;46.136;8.830;2024-01-30T12:40:05;1.60;;;1.00;;
75760;SDS011;64373;46.136;8.830;2024-01-30T12:42:33;1.73;;;0.82;;
75760;SDS011;64373;46.136;8.830;2024-01-30T12:44:59;1.42;;;0.98;;
75760;SDS011;64373;46.136;8.830;2024-01-30T12:47:24;1.35;;;1.10;;
75760;SDS011;64373;46.136;8.830;2024-01-30T12:49:50;1.98;;;1.00;;
75760;SDS011;64373;46.136;8.830;2024-01-30T12:52:19;1.70;;;1.20;;
75760;SDS011;64373;46.136;8.830;2024-01-30T12:54:45;2.00;;;1.10;;
75760;SDS011;64373;46.136;8.830;2024-01-30T12:57:11;2.00;;;1.38;;
75760;SDS011;64373;46.136;8.830;2024-01-30T12:59:36;1.23;;;1.00;;
75760;SDS011;64373;46.136;8.830;2024-01-30T13:02:02;2.47;;;1.80;;
75760;SDS011;64373;46.136;8.830;2024-01-30T13:04:28;2.33;;;1.80;;
75760;SDS011;64373;46.136;8.830;2024-01-30T13:06:54;2.33;;;1.70;;
75760;SDS011;64373;46.136;8.830;2024-01-30T13:09:20;2.25;;;1.48;;
75760;SDS011;64373;46.136;8.830;2024-01-30T13:11:46;2.10;;;1.67;;
75760;SDS011;64373;46.136;8.830;2024-01-30T13:14:11;2.30;;;1.65;;
75760;SDS011;64373;46.136;8.830;2024-01-30T13:16:37;2.30;;;1.42;;
75760;SDS011;64373;46.136;8.830;2024-01-30T13:19:02;1.30;;;1.05;;
75760;SDS011;64373;46.136;8.830;2024-01-30T13:21:28;2.08;;;1.08;;
75760;SDS011;64373;46.136;8.830;2024-01-30T13:23:54;2.33;;;1.13;;
75760;SDS011;64373;46.136;8.830;2024-01-30T13:26:20;2.22;;;1.13;;
75760;SDS011;64373;46.136;8.830;2024-01-30T13:28:46;1.63;;;1.30;;
75760;SDS011;64373;46.136;8.830;2024-01-30T13:31:12;1.77;;;1.15;;
75760;SDS011;64373;46.136;8.830;2024-01-30T13:33:39;2.35;;;1.52;;
75760;SDS011;64373;46.136;8.830;2024-01-30T13:36:05;1.50;;;1.00;;
75760;SDS011;64373;46.136;8.830;2024-01-30T13:38:31;1.00;;;0.80;;
75760;SDS011;64373;46.136;8.830;2024-01-30T13:40:57;1.58;;;1.25;;
75760;SDS011;64373;46.136;8.830;2024-01-30T13:43:22;2.25;;;1.17;;
75760;SDS011;64373;46.136;8.830;2024-01-30T13:45:48;3.33;;;1.65;;
75760;SDS011;64373;46.136;8.830;2024-01-30T13:48:13;2.78;;;1.20;;
75760;SDS011;64373;46.136;8.830;2024-01-30T13:50:39;1.52;;;1.30;;
75760;SDS011;64373;46.136;8.830;2024-01-30T13:53:04;1.88;;;1.15;;
75760;SDS011;64373;46.136;8.830;2024-01-30T13:55:30;1.75;;;1.20;;
75760;SDS011;64373;46.136;8.830;2024-01-30T13:57:55;1.33;;;1.10;;
75760;SDS011;64373;46.136;8.830;2024-01-30T14:00:21;1.35;;;1.00;;
75760;SDS011;64373;46.136;8.830;2024-01-30T14:02:48;1.83;;;1.17;;
75760;SDS011;64373;46.136;8.830;2024-01-30T14:05:13;2.15;;;1.08;;
75760;SDS011;64373;46.136;8.830;2024-01-30T14:07:40;1.52;;;1.20;;
75760;SDS011;64373;46.136;8.830;2024-01-30T14:10:09;1.60;;;1.20;;
75760;SDS011;64373;46.136;8.830;2024-01-30T14:12:36;1.55;;;1.10;;
75760;SDS011;64373;46.136;8.830;2024-01-30T14:15:02;2.78;;;1.50;;
75760;SDS011;64373;46.136;8.830;2024-01-30T14:17:27;2.65;;;1.30;;
75760;SDS011;64373;46.136;8.830;2024-01-30T14:19:53;1.75;;;1.00;;
75760;SDS011;64373;46.136;8.830;2024-01-30T14:22:18;3.70;;;1.80;;
75760;SDS011;64373;46.136;8.830;2024-01-30T14:24:44;2.60;;;1.60;;
75760;SDS011;64373;46.136;8.830;2024-01-30T14:27:09;2.72;;;1.50;;
75760;SDS011;64373;46.136;8.830;2024-01-30T14:29:35;2.85;;;1.38;;
75760;SDS011;64373;46.136;8.830;2024-01-30T14:32:01;2.88;;;1.80;;
75760;SDS011;64373;46.136;8.830;2024-01-30T14:34:27;5.32;;;1.98;;
75760;SDS011;64373;46.136;8.830;2024-01-30T14:36:52;3.03;;;1.65;;
75760;SDS011;64373;46.136;8.830;2024-01-30T14:39:18;3.05;;;1.80;;
75760;SDS011;64373;46.136;8.830;2024-01-30T14:41:44;2.13;;;1.42;;
75760;SDS011;64373;46.136;8.830;2024-01-30T14:44:09;2.08;;;1.55;;
75760;SDS011;64373;46.136;8.830;2024-01-30T14:46:35;3.30;;;1.30;;